Time;durP1;ratioP1;P1;durP2;ratioP2;P2;SDS_P1;SDS_P2;PMS_P1;PMS_P2;Temp;Humidity;BMP_temperature;BMP_pressure;BME280_temperature;BME280_humidity;BME280_pressure;Samples;Min_cycle;Max_cycle;Signal;HPM_P1;HPM_P2
2021/10/14 00:00:42;;;;;;;4.43;2.30;;;;;18.10;102411.00;;;;5031179;28;20207;-79
2021/10/14 00:03:11;;;;;;;3.30;2.03;;;;;18.10;102404.00;;;;5041531;28;20226;-79
2021/10/14 00:05:38;;;;;;;3.50;2.13;;;;;18.10;102406.00;;;;5043454;28;20216;-79
2021/10/14 00:08:05;;;;;;;3.00;1.83;;;;;18.10;102405.00;;;;5051217;28;20203;-79
2021/10/14 00:10:33;;;;;;;4.07;1.95;;;;;18.10;102406.00;;;;5060827;28;20204;-78
2021/10/14 00:13:00;;;;;;;4.50;1.83;;;;;18.10;102410.00;;;;5050052;28;20584;-79
2021/10/14 00:15:28;;;;;;;4.40;2.80;;;;;18.10;102413.00;;;;5031191;28;20196;-79
2021/10/14 00:17:55;;;;;;;3.38;1.92;;;;;18.10;102411.00;;;;5030567;28;20254;-79
2021/10/14 00:20:24;;;;;;;4.03;2.70;;;;;18.10;102404.00;;;;5031032;28;20207;-79
2021/10/14 00:22:51;;;;;;;3.83;2.30;;;;;18.20;102405.00;;;;5037352;28;20204;-79
2021/10/14 00:25:19;;;;;;;4.68;2.30;;;;;18.10;102398.00;;;;5051214;28;20218;-79
2021/10/14 00:27:47;;;;;;;4.32;2.08;;;;;18.20;102390.00;;;;5050891;28;20207;-79
2021/10/14 00:30:14;;;;;;;4.97;2.58;;;;;18.20;102393.00;;;;5035043;28;20208;-79
2021/10/14 00:32:42;;;;;;;2.92;2.10;;;;;18.20;102389.00;;;;5030745;28;20211;-79
2021/10/14 00:35:10;;;;;;;2.70;2.20;;;;;18.20;102389.00;;;;5030165;28;20207;-78
2021/10/14 00:37:38;;;;;;;3.28;2.47;;;;;18.20;102390.00;;;;5033549;28;20219;-79
2021/10/14 00:40:07;;;;;;;3.88;2.60;;;;;18.20;102384.00;;;;5034312;28;20236;-78
2021/10/14 00:42:35;;;;;;;3.50;2.78;;;;;18.20;102381.00;;;;5031868;28;20204;-79
2021/10/14 00:45:03;;;;;;;3.90;2.58;;;;;18.20;102383.00;;;;5029717;28;20200;-78
2021/10/14 00:47:31;;;;;;;3.78;2.63;;;;;18.20;102384.00;;;;5037491;28;20200;-79
2021/10/14 00:49:59;;;;;;;3.50;2.72;;;;;18.20;102377.00;;;;5049346;28;20191;-78
2021/10/14 00:52:27;;;;;;;3.72;2.15;;;;;18.20;102381.00;;;;5047064;28;20222;-79
2021/10/14 00:54:56;;;;;;;3.15;2.75;;;;;18.20;102378.00;;;;5030179;28;20231;-79
2021/10/14 00:57:24;;;;;;;3.63;2.60;;;;;18.20;102372.00;;;;5048760;28;20230;-79
2021/10/14 00:59:52;;;;;;;4.97;2.78;;;;;18.20;102365.00;;;;5036523;28;20671;-79
2021/10/14 01:02:19;;;;;;;4.70;2.90;;;;;18.30;102363.00;;;;5047115;28;20596;-79
2021/10/14 01:04:46;;;;;;;3.13;2.30;;;;;18.30;102357.00;;;;5047012;28;20235;-79
2021/10/14 01:07:14;;;;;;;4.88;2.33;;;;;18.30;102362.00;;;;5030055;28;20963;-79
2021/10/14 01:09:41;;;;;;;3.88;2.60;;;;;18.30;102354.00;;;;5053125;28;20199;-79
2021/10/14 01:12:10;;;;;;;4.57;2.70;;;;;18.30;102346.00;;;;5036537;28;20250;-79
2021/10/14 01:14:37;;;;;;;3.83;3.00;;;;;18.30;102344.00;;;;5029724;28;20193;-79
2021/10/14 01:17:04;;;;;;;5.15;2.83;;;;;18.40;102353.00;;;;5053518;28;20715;-79
2021/10/14 01:19:32;;;;;;;3.33;2.53;;;;;18.40;102343.00;;;;5065537;28;20208;-79
2021/10/14 01:22:01;;;;;;;4.78;3.95;;;;;18.30;102344.00;;;;5043362;28;20211;-79
2021/10/14 01:24:28;;;;;;;4.70;2.78;;;;;18.40;102341.00;;;;5049191;28;20257;-79
2021/10/14 01:26:55;;;;;;;5.10;3.58;;;;;18.40;102340.00;;;;5040010;28;20275;-79
2021/10/14 01:29:22;;;;;;;3.85;3.03;;;;;18.40;102344.00;;;;5042090;28;20207;-79
2021/10/14 01:31:50;;;;;;;4.63;3.60;;;;;18.40;102344.00;;;;5034432;28;20262;-79
2021/10/14 01:34:17;;;;;;;6.03;3.95;;;;;18.40;102334.00;;;;5039824;28;20201;-79
2021/10/14 01:36:44;;;;;;;6.15;4.35;;;;;18.40;102340.00;;;;5043188;28;20215;-79
2021/10/14 01:39:13;;;;;;;5.53;3.83;;;;;18.40;102327.00;;;;5054711;28;20230;-79
2021/10/14 01:41:44;;;;;;;5.93;3.55;;;;;18.40;102329.00;;;;5055336;28;21009;-79
2021/10/14 01:44:12;;;;;;;4.22;3.40;;;;;18.50;102327.00;;;;5044078;28;20330;-78
2021/10/14 01:46:39;;;;;;;5.57;3.80;;;;;18.50;102327.00;;;;5043717;28;20204;-79
2021/10/14 01:49:07;;;;;;;7.15;4.72;;;;;18.50;102333.00;;;;5040652;28;20203;-79
2021/10/14 01:51:34;;;;;;;8.60;4.60;;;;;18.50;102322.00;;;;5046062;28;20191;-79
2021/10/14 01:54:01;;;;;;;8.15;4.35;;;;;18.50;102329.00;;;;5028636;28;20213;-79
2021/10/14 01:56:30;;;;;;;6.63;4.53;;;;;18.50;102336.00;;;;5028947;28;20220;-79
2021/10/14 01:58:57;;;;;;;8.20;4.53;;;;;18.50;102335.00;;;;5028743;28;20200;-79
2021/10/14 02:01:25;;;;;;;9.75;4.43;;;;;18.50;102329.00;;;;5044881;28;20203;-79
2021/10/14 02:03:52;;;;;;;7.00;4.95;;;;;18.50;102331.00;;;;5034797;28;20204;-79
2021/10/14 02:06:19;;;;;;;7.15;4.20;;;;;18.50;102326.00;;;;5028864;28;20741;-79
2021/10/14 02:08:46;;;;;;;7.85;5.22;;;;;18.50;102317.00;;;;5042642;28;20206;-79
2021/10/14 02:11:14;;;;;;;6.38;4.60;;;;;18.60;102326.00;;;;5068456;28;20226;-79
2021/10/14 02:13:42;;;;;;;8.68;5.15;;;;;18.60;102320.00;;;;5044007;28;20693;-79
2021/10/14 02:16:10;;;;;;;11.13;5.75;;;;;18.60;102325.00;;;;5028353;28;20211;-78
2021/10/14 02:18:37;;;;;;;8.23;4.60;;;;;18.60;102321.00;;;;5028797;28;20200;-79
2021/10/14 02:21:04;;;;;;;8.55;5.38;;;;;18.60;102322.00;;;;5035664;28;20210;-79
2021/10/14 02:23:32;;;;;;;10.68;6.25;;;;;18.60;102323.00;;;;5047678;28;20207;-79
2021/10/14 02:25:59;;;;;;;9.65;5.43;;;;;18.60;102329.00;;;;5049151;28;20191;-79
2021/10/14 02:28:27;;;;;;;10.27;5.53;;;;;18.60;102323.00;;;;5059398;28;20214;-80
2021/10/14 02:30:56;;;;;;;7.10;5.13;;;;;18.60;102320.00;;;;5059508;28;20198;-80
2021/10/14 02:33:23;;;;;;;8.95;5.88;;;;;18.60;102319.00;;;;5040249;28;20203;-79
2021/10/14 02:35:50;;;;;;;9.60;6.45;;;;;18.60;102316.00;;;;5028488;28;20681;-79
2021/10/14 02:38:18;;;;;;;8.57;4.80;;;;;18.60;102320.00;;;;5028772;28;20236;-78
2021/10/14 02:40:45;;;;;;;7.05;5.35;;;;;18.60;102313.00;;;;5028745;28;20200;-79
2021/10/14 02:43:12;;;;;;;7.60;5.50;;;;;18.60;102305.00;;;;5038146;28;20219;-78
2021/10/14 02:45:39;;;;;;;9.43;5.95;;;;;18.60;102308.00;;;;5050451;28;20211;-79
2021/10/14 02:48:08;;;;;;;7.18;5.30;;;;;18.60;102303.00;;;;5038126;28;20374;-79
2021/10/14 02:50:35;;;;;;;8.55;5.47;;;;;18.60;102313.00;;;;5049481;28;20211;-79
2021/10/14 02:53:03;;;;;;;9.45;5.82;;;;;18.60;102314.00;;;;5044825;28;20254;-79
2021/10/14 02:55:30;;;;;;;9.75;5.93;;;;;18.60;102308.00;;;;5040948;28;20219;-79
2021/10/14 02:57:57;;;;;;;8.60;5.88;;;;;18.60;102313.00;;;;5031570;28;20705;-79
2021/10/14 03:00:24;;;;;;;11.55;5.97;;;;;18.60;102314.00;;;;5050781;28;20191;-79
2021/10/14 03:02:51;;;;;;;7.72;5.50;;;;;18.60;102302.00;;;;5045277;28;20201;-79
2021/10/14 03:05:20;;;;;;;10.45;5.93;;;;;18.60;102305.00;;;;5032370;28;20584;-79
2021/10/14 03:07:47;;;;;;;8.80;5.10;;;;;18.60;102304.00;;;;5043263;28;20215;-79
2021/10/14 03:10:15;;;;;;;10.45;6.38;;;;;18.60;102300.00;;;;5051880;28;20237;-79
2021/10/14 03:12:42;;;;;;;8.98;6.15;;;;;18.60;102296.00;;;;5039068;28;20562;-79
2021/10/14 03:15:09;;;;;;;8.52;6.13;;;;;18.60;102302.00;;;;5032280;28;20201;-79
2021/10/14 03:17:37;;;;;;;8.45;5.43;;;;;18.60;102297.00;;;;5031607;28;20247;-79
2021/10/14 03:20:05;;;;;;;8.48;5.72;;;;;18.60;102298.00;;;;5031007;28;20204;-79
2021/10/14 03:22:34;;;;;;;10.38;6.47;;;;;18.60;102299.00;;;;5032340;28;20211;-79
2021/10/14 03:25:01;;;;;;;8.65;5.93;;;;;18.60;102298.00;;;;5031365;28;20621;-79
2021/10/14 03:27:28;;;;;;;9.25;5.88;;;;;18.60;102296.00;;;;5031581;28;20192;-79
2021/10/14 03:29:55;;;;;;;9.88;5.88;;;;;18.60;102294.00;;;;5038225;28;20195;-79
2021/10/14 03:32:23;;;;;;;9.02;5.85;;;;;18.60;102290.00;;;;5052235;28;20654;-79
2021/10/14 03:34:50;;;;;;;8.68;5.97;;;;;18.60;102288.00;;;;5051074;28;20199;-78
2021/10/14 03:37:17;;;;;;;8.70;6.28;;;;;18.60;102297.00;;;;5045250;28;20246;-79
2021/10/14 03:39:46;;;;;;;9.05;6.68;;;;;18.60;102294.00;;;;5056571;28;20250;-78
2021/10/14 03:42:13;;;;;;;11.35;6.47;;;;;18.60;102294.00;;;;5068250;28;20589;-80
2021/10/14 03:44:41;;;;;;;7.75;5.80;;;;;18.60;102294.00;;;;5044578;28;20203;-79
2021/10/14 03:47:08;;;;;;;7.53;5.88;;;;;18.70;102297.00;;;;5046855;28;20833;-79
2021/10/14 03:49:35;;;;;;;10.10;6.78;;;;;18.70;102294.00;;;;5049817;28;20253;-79
2021/10/14 03:52:03;;;;;;;8.02;6.35;;;;;18.70;102287.00;;;;5046373;28;20211;-79
2021/10/14 03:54:30;;;;;;;8.82;6.70;;;;;18.70;102289.00;;;;5031274;28;20962;-79
2021/10/14 03:56:59;;;;;;;8.38;5.78;;;;;18.70;102289.00;;;;5048788;28;20775;-79
2021/10/14 03:59:26;;;;;;;10.35;6.80;;;;;18.70;102289.00;;;;5046329;28;20255;-79
2021/10/14 04:01:53;;;;;;;9.63;6.60;;;;;18.70;102293.00;;;;5039206;28;20207;-79
2021/10/14 04:04:21;;;;;;;8.50;5.80;;;;;18.70;102286.00;;;;5040672;28;20202;-79
2021/10/14 04:06:49;;;;;;;9.00;5.57;;;;;18.70;102288.00;;;;5029515;28;20207;-79
2021/10/14 04:09:16;;;;;;;9.82;7.45;;;;;18.70;102293.00;;;;5045267;28;20203;-79
2021/10/14 04:11:43;;;;;;;11.60;6.35;;;;;18.70;102289.00;;;;5048651;28;20204;-80
2021/10/14 04:14:13;;;;;;;7.18;5.53;;;;;18.70;102286.00;;;;5049344;28;20198;-79
2021/10/14 04:16:40;;;;;;;8.82;6.43;;;;;18.70;102287.00;;;;5046722;28;20207;-79
2021/10/14 04:19:07;;;;;;;9.02;6.53;;;;;18.70;102289.00;;;;5049135;28;20246;-79
2021/10/14 04:21:36;;;;;;;11.23;7.00;;;;;18.60;102288.00;;;;5041894;28;20200;-79
2021/10/14 04:24:03;;;;;;;8.95;6.28;;;;;18.60;102283.00;;;;5046801;28;20212;-79
2021/10/14 04:26:31;;;;;;;9.82;6.13;;;;;18.60;102290.00;;;;5028198;28;20674;-79
2021/10/14 04:28:58;;;;;;;9.48;6.40;;;;;18.60;102287.00;;;;5029146;28;20211;-78
2021/10/14 04:31:28;;;;;;;8.60;6.00;;;;;18.60;102287.00;;;;5051739;28;20199;-79
2021/10/14 04:33:55;;;;;;;8.43;6.18;;;;;18.60;102280.00;;;;5052997;28;20207;-79
2021/10/14 04:36:22;;;;;;;9.32;6.43;;;;;18.60;102285.00;;;;5055581;28;20227;-79
2021/10/14 04:38:50;;;;;;;10.93;6.00;;;;;18.60;102273.00;;;;4993196;28;1027969;-79
2021/10/14 04:41:17;;;;;;;11.05;6.35;;;;;18.60;102277.00;;;;5030416;28;20219;-77
2021/10/14 04:43:44;;;;;;;8.57;6.35;;;;;18.70;102280.00;;;;5041605;28;20200;-77
2021/10/14 04:46:11;;;;;;;9.45;6.35;;;;;18.70;102277.00;;;;5035744;28;20772;-77
2021/10/14 04:48:40;;;;;;;10.52;7.00;;;;;18.60;102276.00;;;;5045094;28;20198;-77
2021/10/14 04:51:07;;;;;;;10.90;7.00;;;;;18.60;102271.00;;;;5029906;28;20204;-77
2021/10/14 04:53:34;;;;;;;10.25;6.32;;;;;18.60;102275.00;;;;5041758;28;20207;-77
2021/10/14 04:56:03;;;;;;;11.93;7.13;;;;;18.60;102273.00;;;;5030328;28;20234;-77
2021/10/14 04:58:31;;;;;;;12.20;6.03;;;;;18.60;102275.00;;;;5029787;28;20220;-78
2021/10/14 05:00:59;;;;;;;11.13;6.43;;;;;18.60;102279.00;;;;5049022;28;20196;-78
2021/10/14 05:03:26;;;;;;;12.30;6.65;;;;;18.60;102276.00;;;;5045509;28;20200;-77
2021/10/14 05:05:54;;;;;;;9.02;6.80;;;;;18.60;102279.00;;;;5028456;28;20196;-77
2021/10/14 05:08:22;;;;;;;8.77;6.63;;;;;18.60;102285.00;;;;5029201;28;20195;-78
2021/10/14 05:10:49;;;;;;;8.50;6.03;;;;;18.60;102282.00;;;;5028227;28;20204;-78
2021/10/14 05:13:16;;;;;;;9.70;6.50;;;;;18.70;102276.00;;;;5030300;28;20200;-79
2021/10/14 05:15:44;;;;;;;8.98;6.38;;;;;18.70;102276.00;;;;5033310;28;20577;-78
2021/10/14 05:18:11;;;;;;;9.13;6.65;;;;;18.70;102278.00;;;;5034315;28;20230;-78
2021/10/14 05:20:38;;;;;;;8.88;6.43;;;;;18.70;102279.00;;;;5043330;28;20196;-79
2021/10/14 05:23:07;;;;;;;8.82;6.88;;;;;18.70;102280.00;;;;5038152;28;20221;-78
2021/10/14 05:25:34;;;;;;;8.73;6.18;;;;;18.70;102285.00;;;;5030101;28;20208;-77
2021/10/14 05:28:01;;;;;;;8.45;6.00;;;;;18.70;102277.00;;;;5037575;28;20203;-77
2021/10/14 05:30:29;;;;;;;8.65;6.13;;;;;18.70;102275.00;;;;5044668;28;20291;-78
2021/10/14 05:32:56;;;;;;;7.82;6.55;;;;;18.70;102276.00;;;;5034038;28;20204;-78
2021/10/14 05:35:23;;;;;;;8.75;7.18;;;;;18.70;102276.00;;;;5032095;28;20195;-78
2021/10/14 05:37:50;;;;;;;11.85;6.78;;;;;18.70;102270.00;;;;5034637;28;20226;-79
2021/10/14 05:40:19;;;;;;;10.55;7.82;;;;;18.70;102268.00;;;;5043080;28;20227;-77
2021/10/14 05:42:47;;;;;;;9.30;6.65;;;;;18.70;102269.00;;;;5036916;28;20564;-81
2021/10/14 05:45:15;;;;;;;11.70;7.63;;;;;18.70;102278.00;;;;5041938;28;20257;-81
2021/10/14 05:47:42;;;;;;;8.65;6.80;;;;;18.70;102270.00;;;;5037667;28;20222;-81
2021/10/14 05:50:09;;;;;;;10.68;7.57;;;;;18.70;102264.00;;;;5032444;28;20200;-80
2021/10/14 05:52:37;;;;;;;10.68;7.35;;;;;18.70;102264.00;;;;5044186;28;20202;-80
2021/10/14 05:55:04;;;;;;;8.27;6.10;;;;;18.70;102259.00;;;;5044453;28;20216;-78
2021/10/14 05:57:33;;;;;;;9.93;7.20;;;;;18.70;102261.00;;;;5033622;28;20197;-78
2021/10/14 06:00:00;;;;;;;9.52;7.28;;;;;18.80;102265.00;;;;5046849;28;20227;-78
2021/10/14 06:02:27;;;;;;;8.68;7.38;;;;;18.80;102267.00;;;;5035809;28;20708;-78
2021/10/14 06:04:55;;;;;;;11.60;8.00;;;;;18.80;102273.00;;;;5041555;28;20204;-78
2021/10/14 06:07:22;;;;;;;10.85;7.70;;;;;18.80;102268.00;;;;5036384;28;20202;-79
2021/10/14 06:09:49;;;;;;;9.48;7.00;;;;;18.80;102265.00;;;;5048436;28;20211;-79
2021/10/14 06:12:16;;;;;;;10.82;7.47;;;;;18.80;102264.00;;;;5049061;28;20203;-79
2021/10/14 06:14:45;;;;;;;10.18;7.43;;;;;18.80;102264.00;;;;5048773;28;20195;-79
2021/10/14 06:17:13;;;;;;;12.82;8.05;;;;;18.80;102268.00;;;;5067743;28;20198;-78
2021/10/14 06:19:40;;;;;;;9.63;7.55;;;;;18.80;102270.00;;;;5050366;28;20608;-78
2021/10/14 06:22:07;;;;;;;12.57;7.20;;;;;18.80;102265.00;;;;5028241;28;20986;-78
2021/10/14 06:24:34;;;;;;;9.25;6.40;;;;;18.90;102261.00;;;;5049791;28;20209;-78
2021/10/14 06:27:02;;;;;;;12.05;8.25;;;;;18.90;102265.00;;;;5067472;28;20202;-79
2021/10/14 06:29:29;;;;;;;15.05;6.78;;;;;18.90;102259.00;;;;5067732;28;20306;-78
2021/10/14 06:31:58;;;;;;;12.88;7.78;;;;;18.90;102261.00;;;;5068842;28;20248;-79
2021/10/14 06:34:25;;;;;;;8.77;6.95;;;;;18.90;102266.00;;;;5070614;28;20215;-78
2021/10/14 06:36:52;;;;;;;12.25;7.50;;;;;18.90;102262.00;;;;5039172;28;20207;-80
2021/10/14 06:39:19;;;;;;;10.75;8.40;;;;;18.90;102258.00;;;;5028406;28;20235;-79
2021/10/14 06:41:47;;;;;;;10.30;7.70;;;;;18.90;102259.00;;;;5027931;28;20208;-79
2021/10/14 06:44:14;;;;;;;13.60;8.82;;;;;18.90;102261.00;;;;5028671;28;20207;-79
2021/10/14 06:46:42;;;;;;;11.23;8.43;;;;;18.90;102265.00;;;;5028333;28;20691;-79
2021/10/14 06:49:10;;;;;;;11.60;8.07;;;;;18.90;102266.00;;;;5027866;28;20216;-80
2021/10/14 06:51:37;;;;;;;17.50;7.90;;;;;19.00;102261.00;;;;5028643;28;20212;-80
2021/10/14 06:54:05;;;;;;;13.35;7.75;;;;;18.90;102264.00;;;;5049353;28;20203;-80
2021/10/14 06:56:32;;;;;;;10.98;8.00;;;;;18.90;102257.00;;;;5067762;28;20203;-81
2021/10/14 06:58:59;;;;;;;11.57;8.02;;;;;19.00;102259.00;;;;5036344;28;20228;-80
2021/10/14 07:01:26;;;;;;;13.90;8.30;;;;;19.00;102253.00;;;;5035285;28;20188;-80
2021/10/14 07:03:53;;;;;;;10.65;7.88;;;;;19.00;102259.00;;;;5052535;28;20202;-81
2021/10/14 07:06:22;;;;;;;15.98;9.10;;;;;19.00;102246.00;;;;5039522;28;20200;-83
2021/10/14 07:08:49;;;;;;;14.55;8.95;;;;;19.00;102254.00;;;;5027983;28;20671;-80
2021/10/14 07:11:17;;;;;;;9.52;7.38;;;;;19.00;102248.00;;;;5029471;28;20208;-80
2021/10/14 07:13:45;;;;;;;12.55;8.25;;;;;19.00;102253.00;;;;5027648;28;20223;-80
2021/10/14 07:16:12;;;;;;;10.90;7.47;;;;;19.00;102250.00;;;;5029132;28;20705;-80
2021/10/14 07:18:40;;;;;;;12.40;8.05;;;;;19.00;102248.00;;;;5041358;28;20770;-80
2021/10/14 07:21:09;;;;;;;12.80;8.45;;;;;19.00;102246.00;;;;5035990;28;20522;-78
2021/10/14 07:23:38;;;;;;;11.13;7.32;;;;;19.00;102253.00;;;;5051142;28;20208;-81
2021/10/14 07:26:05;;;;;;;10.50;7.18;;;;;19.10;102249.00;;;;5047878;28;20204;-80
2021/10/14 07:28:33;;;;;;;14.55;7.95;;;;;19.10;102242.00;;;;5042311;28;20584;-79
2021/10/14 07:31:00;;;;;;;11.40;8.00;;;;;19.10;102245.00;;;;5032249;28;20197;-79
2021/10/14 07:33:27;;;;;;;10.10;7.50;;;;;19.10;102251.00;;;;5040838;28;20195;-79
2021/10/14 07:35:54;;;;;;;13.20;7.57;;;;;19.10;102248.00;;;;5064331;28;20208;-80
2021/10/14 07:38:21;;;;;;;9.93;7.30;;;;;19.10;102246.00;;;;5038625;28;20224;-80
2021/10/14 07:40:50;;;;;;;9.32;6.78;;;;;19.10;102254.00;;;;5035194;28;20208;-79
2021/10/14 07:43:17;;;;;;;9.60;7.38;;;;;19.10;102250.00;;;;5038707;28;20197;-79
2021/10/14 07:45:47;;;;;;;8.95;7.65;;;;;19.20;102252.00;;;;5054700;28;20218;-80
2021/10/14 07:48:14;;;;;;;10.80;7.13;;;;;19.20;102252.00;;;;5039076;28;20204;-80
2021/10/14 07:50:42;;;;;;;10.32;6.95;;;;;19.20;102241.00;;;;5033370;28;20204;-79
2021/10/14 07:53:14;;;;;;;9.65;6.53;;;;;19.20;102248.00;;;;5053169;28;20696;-80
2021/10/14 07:55:41;;;;;;;14.10;6.50;;;;;19.20;102253.00;;;;5044571;28;20223;-79
2021/10/14 07:58:10;;;;;;;8.05;6.43;;;;;19.20;102255.00;;;;5054054;28;20200;-79
2021/10/14 08:00:39;;;;;;;10.23;6.63;;;;;19.30;102249.00;;;;5048148;28;20564;-80
2021/10/14 08:03:06;;;;;;;11.05;6.75;;;;;19.30;102256.00;;;;5040806;28;20203;-79
2021/10/14 08:05:34;;;;;;;8.05;6.20;;;;;19.30;102248.00;;;;5044744;28;20208;-80
2021/10/14 08:08:01;;;;;;;8.43;7.05;;;;;19.30;102247.00;;;;5046314;28;20211;-80
2021/10/14 08:10:29;;;;;;;9.07;7.00;;;;;19.30;102251.00;;;;5042064;28;20223;-79
2021/10/14 08:12:57;;;;;;;9.40;6.90;;;;;19.30;102240.00;;;;5041551;28;20670;-80
2021/10/14 08:15:26;;;;;;;8.23;6.38;;;;;19.40;102242.00;;;;5051619;28;20204;-80
2021/10/14 08:17:53;;;;;;;8.60;6.97;;;;;19.40;102235.00;;;;5032812;28;20204;-80
2021/10/14 08:20:20;;;;;;;11.10;7.30;;;;;19.40;102244.00;;;;5036737;28;20236;-81
2021/10/14 08:22:49;;;;;;;10.07;5.60;;;;;19.40;102245.00;;;;5050087;28;20546;-81
2021/10/14 08:25:16;;;;;;;9.23;6.78;;;;;19.40;102250.00;;;;5051878;28;20572;-80
2021/10/14 08:27:44;;;;;;;9.43;6.05;;;;;19.50;102256.00;;;;5042918;28;20196;-80
2021/10/14 08:30:13;;;;;;;7.47;6.20;;;;;19.50;102245.00;;;;5035952;28;20200;-79
2021/10/14 08:32:42;;;;;;;8.98;6.03;;;;;19.50;102251.00;;;;5030295;28;20200;-81
2021/10/14 08:35:10;;;;;;;7.93;6.20;;;;;19.50;102254.00;;;;5037498;28;20196;-80
2021/10/14 08:37:38;;;;;;;7.88;5.68;;;;;19.50;102252.00;;;;5045895;28;20638;-81
2021/10/14 08:40:06;;;;;;;7.47;5.75;;;;;19.60;102250.00;;;;5038017;28;20236;-81
2021/10/14 08:42:34;;;;;;;7.78;5.63;;;;;19.60;102247.00;;;;5030750;28;20266;-81
2021/10/14 08:45:03;;;;;;;9.98;6.90;;;;;19.60;102246.00;;;;5029255;28;20201;-81
2021/10/14 08:47:31;;;;;;;10.15;6.38;;;;;19.60;102252.00;;;;5029662;28;20204;-80
2021/10/14 08:50:00;;;;;;;13.48;7.32;;;;;19.60;102247.00;;;;5029207;28;20197;-80
2021/10/14 08:52:27;;;;;;;8.30;6.32;;;;;19.60;102245.00;;;;5033102;28;20792;-81
2021/10/14 08:54:55;;;;;;;10.50;6.25;;;;;19.60;102251.00;;;;5042302;28;20216;-80
2021/10/14 08:57:22;;;;;;;10.02;6.65;;;;;19.70;102244.00;;;;5030716;28;20204;-80
2021/10/14 08:59:49;;;;;;;7.82;6.05;;;;;19.70;102246.00;;;;5029128;28;20235;-80
2021/10/14 09:02:19;;;;;;;7.85;6.00;;;;;19.70;102244.00;;;;5034780;28;20192;-81
2021/10/14 09:05:03;;;;;;;8.45;6.10;;;;;19.70;102252.00;;;;5029010;28;20291;-80
2021/10/14 09:07:32;;;;;;;8.88;6.57;;;;;19.80;102256.00;;;;5029006;28;20285;-81
2021/10/14 09:10:01;;;;;;;8.05;6.43;;;;;19.80;102253.00;;;;5032878;28;20200;-80
2021/10/14 09:12:34;;;;;;;8.25;5.65;;;;;19.80;102248.00;;;;5029904;28;20753;-79
2021/10/14 09:15:04;;;;;;;10.00;6.10;;;;;19.80;102249.00;;;;5028601;28;20319;-80
2021/10/14 09:17:49;;;;;;;8.85;5.88;;;;;19.70;102252.00;;;;5028863;28;20207;-80
2021/10/14 09:20:33;;;;;;;8.30;5.70;;;;;19.80;102244.00;;;;5029538;28;20614;-80
2021/10/14 09:23:01;;;;;;;8.27;5.90;;;;;19.90;102250.00;;;;5035771;28;20737;-80
2021/10/14 09:25:31;;;;;;;11.98;7.03;;;;;19.90;102239.00;;;;5041301;28;20207;-80
2021/10/14 09:28:18;;;;;;;10.63;6.25;;;;;19.80;102242.00;;;;5027706;28;20223;-81
2021/10/14 09:30:52;;;;;;;9.35;6.95;;;;;19.90;102249.00;;;;5031166;28;20253;-81
2021/10/14 09:33:37;;;;;;;10.20;6.40;;;;;19.90;102248.00;;;;5041768;28;20195;-82
2021/10/14 09:36:17;;;;;;;8.88;6.38;;;;;19.90;102248.00;;;;5027104;28;20215;-81
2021/10/14 09:38:46;;;;;;;9.38;6.00;;;;;20.00;102250.00;;;;5026919;28;20228;-81
2021/10/14 09:41:15;;;;;;;8.20;6.45;;;;;20.10;102248.00;;;;5037818;28;20203;-82
2021/10/14 09:43:43;;;;;;;9.82;6.35;;;;;20.10;102247.00;;;;5037320;28;20204;-83
2021/10/14 09:46:11;;;;;;;9.15;7.00;;;;;20.20;102243.00;;;;5040589;28;20208;-82
2021/10/14 09:48:41;;;;;;;8.93;6.70;;;;;20.20;102243.00;;;;5028102;28;20208;-81
2021/10/14 09:51:09;;;;;;;10.05;8.30;;;;;20.20;102238.00;;;;5029114;28;20231;-82
2021/10/14 09:53:38;;;;;;;9.13;6.82;;;;;20.30;102236.00;;;;5044104;28;20293;-82
2021/10/14 09:56:05;;;;;;;10.45;7.95;;;;;20.30;102233.00;;;;5046603;28;20216;-82
2021/10/14 09:58:33;;;;;;;9.75;7.32;;;;;20.40;102235.00;;;;5048839;28;20236;-82
2021/10/14 10:01:01;;;;;;;10.30;7.53;;;;;20.40;102226.00;;;;5047260;28;20207;-81
2021/10/14 10:03:29;;;;;;;9.93;8.10;;;;;20.40;102229.00;;;;5047387;28;20253;-81
2021/10/14 10:05:57;;;;;;;10.20;7.72;;;;;20.50;102224.00;;;;5028871;28;20204;-81
2021/10/14 10:08:30;;;;;;;8.38;6.65;;;;;20.50;102221.00;;;;5043269;28;20626;-81
2021/10/14 10:11:04;;;;;;;10.00;7.10;;;;;20.60;102222.00;;;;5051280;28;20215;-81
2021/10/14 10:13:33;;;;;;;10.73;6.85;;;;;20.60;102225.00;;;;5046210;28;20279;-81
2021/10/14 10:16:14;;;;;;;9.27;7.25;;;;;20.60;102218.00;;;;5032578;28;20636;-80
2021/10/14 10:18:42;;;;;;;8.85;6.97;;;;;20.80;102219.00;;;;5033212;28;20207;-82
2021/10/14 10:21:25;;;;;;;9.75;7.78;;;;;20.80;102217.00;;;;5035198;28;20208;-82
2021/10/14 10:23:52;;;;;;;8.32;7.28;;;;;20.90;102223.00;;;;5032184;28;20227;-80
2021/10/14 10:26:50;;;;;;;8.20;6.55;;;;;20.80;102214.00;;;;5029876;28;20196;-81
2021/10/14 10:29:46;;;;;;;8.88;6.45;;;;;20.80;102209.00;;;;5050249;28;20203;-82
2021/10/14 10:32:24;;;;;;;12.80;6.95;;;;;20.90;102212.00;;;;5044763;28;20192;-81
2021/10/14 10:35:02;;;;;;;9.60;6.70;;;;;21.00;102213.00;;;;5059965;28;20687;-82
2021/10/14 10:37:40;;;;;;;9.52;7.32;;;;;21.00;102215.00;;;;5034446;28;20239;-81
2021/10/14 10:40:32;;;;;;;7.72;5.80;;;;;21.00;102217.00;;;;5042833;28;20792;-81
2021/10/14 10:43:07;;;;;;;9.95;7.55;;;;;21.00;102209.00;;;;5031596;28;20278;-81
2021/10/14 10:45:46;;;;;;;10.23;7.68;;;;;21.00;102208.00;;;;5042453;28;20666;-82
2021/10/14 10:48:14;;;;;;;9.38;7.20;;;;;21.10;102210.00;;;;5042032;28;20626;-81
2021/10/14 10:50:56;;;;;;;10.60;7.15;;;;;21.00;102203.00;;;;5041137;28;20207;-81
2021/10/14 10:53:38;;;;;;;8.13;6.70;;;;;21.10;102199.00;;;;5046596;28;20196;-81
2021/10/14 10:56:07;;;;;;;8.82;6.40;;;;;21.10;102198.00;;;;5041265;28;20218;-81
2021/10/14 10:58:50;;;;;;;10.32;6.47;;;;;21.00;102190.00;;;;5041036;28;20262;-82
2021/10/14 11:01:19;;;;;;;9.15;6.80;;;;;21.20;102191.00;;;;5035760;28;20713;-81
2021/10/14 11:03:56;;;;;;;10.77;6.75;;;;;21.10;102198.00;;;;5036535;28;20207;-81
2021/10/14 11:06:24;;;;;;;8.90;7.00;;;;;21.20;102192.00;;;;5053629;28;20195;-81
2021/10/14 11:08:52;;;;;;;10.43;6.97;;;;;21.20;102191.00;;;;5040216;28;20204;-81
2021/10/14 11:11:21;;;;;;;6.97;5.88;;;;;21.20;102188.00;;;;5033373;28;20220;-82
2021/10/14 11:13:52;;;;;;;7.70;6.65;;;;;21.20;102186.00;;;;5036692;28;20243;-81
2021/10/14 11:16:21;;;;;;;7.05;6.30;;;;;21.30;102190.00;;;;5035124;28;20196;-80
2021/10/14 11:18:51;;;;;;;8.07;6.50;;;;;21.30;102185.00;;;;5044080;28;20200;-81
2021/10/14 11:21:24;;;;;;;10.30;7.15;;;;;21.20;102179.00;;;;5053011;28;20234;-82
2021/10/14 11:23:53;;;;;;;8.57;7.15;;;;;21.30;102175.00;;;;5051593;28;20203;-81
2021/10/14 11:26:27;;;;;;;8.48;6.07;;;;;21.30;102173.00;;;;5034109;28;20192;-81
2021/10/14 11:28:59;;;;;;;6.95;6.25;;;;;21.30;102162.00;;;;5033601;28;20200;-81
2021/10/14 11:31:33;;;;;;;8.48;6.28;;;;;21.20;102164.00;;;;5053710;28;20700;-81
2021/10/14 11:34:09;;;;;;;8.13;5.55;;;;;21.10;102159.00;;;;5046119;28;20226;-80
2021/10/14 11:36:38;;;;;;;7.50;6.03;;;;;21.20;102161.00;;;;5046676;28;20214;-80
2021/10/14 11:39:07;;;;;;;6.75;5.72;;;;;21.20;102157.00;;;;5052736;28;20234;-81
2021/10/14 11:41:35;;;;;;;9.27;6.72;;;;;21.20;102161.00;;;;5037397;28;20195;-82
2021/10/14 11:44:05;;;;;;;9.98;7.50;;;;;21.10;102146.00;;;;5041963;28;20192;-80
2021/10/14 11:46:34;;;;;;;8.00;6.55;;;;;21.10;102150.00;;;;5042813;28;20203;-82
2021/10/14 11:49:03;;;;;;;8.75;6.47;;;;;21.20;102147.00;;;;5036824;28;20196;-81
2021/10/14 11:51:31;;;;;;;10.15;5.93;;;;;21.20;102144.00;;;;5033265;28;20208;-80
2021/10/14 11:54:01;;;;;;;12.13;6.55;;;;;21.30;102144.00;;;;5039339;28;20191;-80
2021/10/14 11:56:30;;;;;;;7.88;7.07;;;;;21.30;102140.00;;;;5043106;28;20197;-80
2021/10/14 11:59:05;;;;;;;8.50;7.57;;;;;21.30;102139.00;;;;5046207;28;20199;-81
2021/10/14 12:01:34;;;;;;;9.13;6.93;;;;;21.30;102143.00;;;;5054368;28;20229;-81
2021/10/14 12:04:03;;;;;;;10.80;7.55;;;;;21.30;102129.00;;;;5050914;28;20200;-82
2021/10/14 12:06:31;;;;;;;9.13;7.00;;;;;21.30;102129.00;;;;5040638;28;20235;-84
2021/10/14 12:08:59;;;;;;;9.82;7.47;;;;;21.30;102119.00;;;;5035093;28;20207;-80
2021/10/14 12:11:27;;;;;;;10.95;7.88;;;;;21.30;102119.00;;;;5035956;28;20212;-81
2021/10/14 12:14:00;;;;;;;10.32;7.65;;;;;21.20;102116.00;;;;5037806;28;20204;-80